sensor_id;sensor_type;location;lat;lon;timestamp;temperature;humidity
21316;DHT22;10817;55.820;13.030;2022-10-26T00:00:47;11.20;99.90
21316;DHT22;10817;55.820;13.030;2022-10-26T00:03:14;11.60;99.90
21316;DHT22;10817;55.820;13.030;2022-10-26T00:05:41;11.20;99.90
21316;DHT22;10817;55.820;13.030;2022-10-26T00:08:08;11.10;99.90
21316;DHT22;10817;55.820;13.030;2022-10-26T00:10:36;11.10;99.90
21316;DHT22;10817;55.820;13.030;2022-10-26T00:13:12;11.10;99.90
21316;DHT22;10817;55.820;13.030;2022-10-26T00:15:41;11.20;99.90
21316;DHT22;10817;55.820;13.030;2022-10-26T00:18:08;11.10;99.90
21316;DHT22;10817;55.820;13.030;2022-10-26T00:20:35;11.20;99.90
21316;DHT22;10817;55.820;13.030;2022-10-26T00:23:02;11.20;99.90
21316;DHT22;10817;55.820;13.030;2022-10-26T00:25:29;11.10;99.90
21316;DHT22;10817;55.820;13.030;2022-10-26T00:27:56;11.10;99.90
21316;DHT22;10817;55.820;13.030;2022-10-26T00:30:23;11.20;99.90
21316;DHT22;10817;55.820;13.030;2022-10-26T00:32:52;11.20;99.90
21316;DHT22;10817;55.820;13.030;2022-10-26T00:35:19;11.10;99.90
21316;DHT22;10817;55.820;13.030;2022-10-26T00:37:46;11.10;99.90
21316;DHT22;10817;55.820;13.030;2022-10-26T00:40:12;11.00;99.90
21316;DHT22;10817;55.820;13.030;2022-10-26T00:42:39;11.00;99.90
21316;DHT22;10817;55.820;13.030;2022-10-26T00:45:18;11.00;99.90
21316;DHT22;10817;55.820;13.030;2022-10-26T00:47:47;11.00;99.90
21316;DHT22;10817;55.820;13.030;2022-10-26T00:50:18;11.00;99.90
21316;DHT22;10817;55.820;13.030;2022-10-26T00:52:46;11.00;99.90
21316;DHT22;10817;55.820;13.030;2022-10-26T00:55:13;11.10;99.90
21316;DHT22;10817;55.820;13.030;2022-10-26T00:57:40;11.10;99.90
21316;DHT22;10817;55.820;13.030;2022-10-26T01:00:08;11.10;99.90
21316;DHT22;10817;55.820;13.030;2022-10-26T01:02:35;11.20;99.90
21316;DHT22;10817;55.820;13.030;2022-10-26T01:05:02;11.20;99.90
21316;DHT22;10817;55.820;13.030;2022-10-26T01:07:32;11.20;99.90
21316;DHT22;10817;55.820;13.030;2022-10-26T01:10:00;11.20;99.90
21316;DHT22;10817;55.820;13.030;2022-10-26T01:12:27;11.30;99.90
21316;DHT22;10817;55.820;13.030;2022-10-26T01:14:54;11.30;99.90
21316;DHT22;10817;55.820;13.030;2022-10-26T01:17:30;11.40;99.90
21316;DHT22;10817;55.820;13.030;2022-10-26T01:20:20;11.30;99.90
21316;DHT22;10817;55.820;13.030;2022-10-26T01:22:55;11.30;99.90
21316;DHT22;10817;55.820;13.030;2022-10-26T01:25:40;11.40;99.90
21316;DHT22;10817;55.820;13.030;2022-10-26T01:28:23;11.50;99.90
21316;DHT22;10817;55.820;13.030;2022-10-26T01:30:59;11.50;99.90
21316;DHT22;10817;55.820;13.030;2022-10-26T01:33:31;11.50;99.90
21316;DHT22;10817;55.820;13.030;2022-10-26T01:36:07;11.60;99.90
21316;DHT22;10817;55.820;13.030;2022-10-26T01:38:43;11.60;99.90
21316;DHT22;10817;55.820;13.030;2022-10-26T01:41:16;11.50;99.90
21316;DHT22;10817;55.820;13.030;2022-10-26T01:43:49;11.50;99.90
21316;DHT22;10817;55.820;13.030;2022-10-26T01:46:21;11.60;99.90
21316;DHT22;10817;55.820;13.030;2022-10-26T01:48:52;11.60;99.90
21316;DHT22;10817;55.820;13.030;2022-10-26T01:51:21;12.50;99.90
21316;DHT22;10817;55.820;13.030;2022-10-26T01:53:48;11.60;99.90
21316;DHT22;10817;55.820;13.030;2022-10-26T01:56:19;11.60;99.90
21316;DHT22;10817;55.820;13.030;2022-10-26T01:59:06;11.60;99.90
21316;DHT22;10817;55.820;13.030;2022-10-26T02:05:09;11.70;99.90
21316;DHT22;10817;55.820;13.030;2022-10-26T02:07:48;11.60;99.90
21316;DHT22;10817;55.820;13.030;2022-10-26T02:10:26;11.60;99.90
21316;DHT22;10817;55.820;13.030;2022-10-26T02:13:00;11.60;99.90
21316;DHT22;10817;55.820;13.030;2022-10-26T02:15:33;11.50;99.90
21316;DHT22;10817;55.820;13.030;2022-10-26T02:18:06;11.50;99.90
21316;DHT22;10817;55.820;13.030;2022-10-26T02:20:40;11.70;99.90
21316;DHT22;10817;55.820;13.030;2022-10-26T02:23:10;11.50;99.90
21316;DHT22;10817;55.820;13.030;2022-10-26T02:25:41;11.60;99.90
21316;DHT22;10817;55.820;13.030;2022-10-26T02:28:12;11.50;99.90
21316;DHT22;10817;55.820;13.030;2022-10-26T02:30:41;11.50;99.90
21316;DHT22;10817;55.820;13.030;2022-10-26T02:33:11;11.50;99.90
21316;DHT22;10817;55.820;13.030;2022-10-26T02:35:44;11.60;99.90
21316;DHT22;10817;55.820;13.030;2022-10-26T02:38:14;11.50;99.90
21316;DHT22;10817;55.820;13.030;2022-10-26T02:40:43;11.60;99.90
21316;DHT22;10817;55.820;13.030;2022-10-26T02:43:14;11.50;99.90
21316;DHT22;10817;55.820;13.030;2022-10-26T02:45:48;11.50;99.90
21316;DHT22;10817;55.820;13.030;2022-10-26T02:48:15;11.50;99.90
21316;DHT22;10817;55.820;13.030;2022-10-26T02:50:51;11.40;99.90
21316;DHT22;10817;55.820;13.030;2022-10-26T02:53:24;11.50;99.90
21316;DHT22;10817;55.820;13.030;2022-10-26T02:55:53;11.50;99.90
21316;DHT22;10817;55.820;13.030;2022-10-26T02:58:22;11.50;99.90
21316;DHT22;10817;55.820;13.030;2022-10-26T03:00:52;11.50;99.90
21316;DHT22;10817;55.820;13.030;2022-10-26T03:03:19;11.50;99.90
21316;DHT22;10817;55.820;13.030;2022-10-26T03:05:48;11.50;99.90
21316;DHT22;10817;55.820;13.030;2022-10-26T03:08:15;11.40;99.90
21316;DHT22;10817;55.820;13.030;2022-10-26T03:10:43;11.50;99.90
21316;DHT22;10817;55.820;13.030;2022-10-26T03:13:11;11.50;99.90
21316;DHT22;10817;55.820;13.030;2022-10-26T03:15:40;11.50;99.90
21316;DHT22;10817;55.820;13.030;2022-10-26T03:18:07;11.60;99.90
21316;DHT22;10817;55.820;13.030;2022-10-26T03:20:34;11.70;99.90
21316;DHT22;10817;55.820;13.030;2022-10-26T03:23:04;11.50;99.90
21316;DHT22;10817;55.820;13.030;2022-10-26T03:25:31;11.60;99.90
21316;DHT22;10817;55.820;13.030;2022-10-26T03:27:58;11.50;99.90
21316;DHT22;10817;55.820;13.030;2022-10-26T03:30:26;11.50;99.90
21316;DHT22;10817;55.820;13.030;2022-10-26T03:32:53;11.60;99.90
21316;DHT22;10817;55.820;13.030;2022-10-26T03:35:20;11.50;99.90
21316;DHT22;10817;55.820;13.030;2022-10-26T03:37:47;11.60;99.90
21316;DHT22;10817;55.820;13.030;2022-10-26T03:40:15;11.60;99.90
21316;DHT22;10817;55.820;13.030;2022-10-26T03:42:42;11.60;99.90
21316;DHT22;10817;55.820;13.030;2022-10-26T03:45:10;11.70;99.90
21316;DHT22;10817;55.820;13.030;2022-10-26T03:47:42;11.50;99.90
21316;DHT22;10817;55.820;13.030;2022-10-26T03:50:10;11.50;99.90
21316;DHT22;10817;55.820;13.030;2022-10-26T03:52:37;12.10;99.90
21316;DHT22;10817;55.820;13.030;2022-10-26T03:55:05;11.50;99.90
21316;DHT22;10817;55.820;13.030;2022-10-26T03:57:35;11.60;99.90
21316;DHT22;10817;55.820;13.030;2022-10-26T04:00:06;11.50;99.90
21316;DHT22;10817;55.820;13.030;2022-10-26T04:02:37;11.50;99.90
21316;DHT22;10817;55.820;13.030;2022-10-26T04:05:05;11.60;99.90
21316;DHT22;10817;55.820;13.030;2022-10-26T04:07:32;11.60;99.90
21316;DHT22;10817;55.820;13.030;2022-10-26T04:09:58;11.60;99.90
21316;DHT22;10817;55.820;13.030;2022-10-26T04:12:25;11.60;99.90
21316;DHT22;10817;55.820;13.030;2022-10-26T04:14:54;11.50;99.90
21316;DHT22;10817;55.820;13.030;2022-10-26T04:17:22;11.60;99.90
21316;DHT22;10817;55.820;13.030;2022-10-26T04:19:49;11.50;99.90
21316;DHT22;10817;55.820;13.030;2022-10-26T04:22:16;11.60;99.90
21316;DHT22;10817;55.820;13.030;2022-10-26T04:24:43;11.70;99.90
21316;DHT22;10817;55.820;13.030;2022-10-26T04:27:10;11.70;99.90
21316;DHT22;10817;55.820;13.030;2022-10-26T04:29:36;11.70;99.90
21316;DHT22;10817;55.820;13.030;2022-10-26T04:32:05;11.70;99.90
21316;DHT22;10817;55.820;13.030;2022-10-26T04:34:32;11.60;99.90
21316;DHT22;10817;55.820;13.030;2022-10-26T04:36:59;11.50;99.90
21316;DHT22;10817;55.820;13.030;2022-10-26T04:39:26;11.60;99.90
21316;DHT22;10817;55.820;13.030;2022-10-26T04:41:53;11.60;99.90
21316;DHT22;10817;55.820;13.030;2022-10-26T04:44:19;11.50;99.90
21316;DHT22;10817;55.820;13.030;2022-10-26T04:46:46;11.50;99.90
21316;DHT22;10817;55.820;13.030;2022-10-26T04:49:14;11.40;99.90
21316;DHT22;10817;55.820;13.030;2022-10-26T04:51:41;11.50;99.90
21316;DHT22;10817;55.820;13.030;2022-10-26T04:54:08;11.50;99.90
21316;DHT22;10817;55.820;13.030;2022-10-26T04:56:35;11.60;99.90
21316;DHT22;10817;55.820;13.030;2022-10-26T04:59:03;11.60;99.90
21316;DHT22;10817;55.820;13.030;2022-10-26T05:01:30;11.60;99.90
21316;DHT22;10817;55.820;13.030;2022-10-26T05:03:57;11.60;99.90
21316;DHT22;10817;55.820;13.030;2022-10-26T05:06:25;11.50;99.90
21316;DHT22;10817;55.820;13.030;2022-10-26T05:08:52;11.50;99.90
21316;DHT22;10817;55.820;13.030;2022-10-26T05:11:19;11.60;99.90
21316;DHT22;10817;55.820;13.030;2022-10-26T05:13:46;11.60;99.90
21316;DHT22;10817;55.820;13.030;2022-10-26T05:16:13;11.70;99.90
21316;DHT22;10817;55.820;13.030;2022-10-26T05:18:41;11.80;99.90
21316;DHT22;10817;55.820;13.030;2022-10-26T05:21:08;11.80;99.90
21316;DHT22;10817;55.820;13.030;2022-10-26T05:23:36;11.80;99.90
21316;DHT22;10817;55.820;13.030;2022-10-26T05:26:03;11.80;99.90
21316;DHT22;10817;55.820;13.030;2022-10-26T05:28:30;12.00;99.90
21316;DHT22;10817;55.820;13.030;2022-10-26T05:30:57;12.00;99.90
21316;DHT22;10817;55.820;13.030;2022-10-26T05:33:24;12.00;99.90
21316;DHT22;10817;55.820;13.030;2022-10-26T05:35:53;12.50;99.90
21316;DHT22;10817;55.820;13.030;2022-10-26T05:38:20;12.10;99.90
21316;DHT22;10817;55.820;13.030;2022-10-26T05:40:48;11.90;99.90
21316;DHT22;10817;55.820;13.030;2022-10-26T05:43:15;9.90;99.90
21316;DHT22;10817;55.820;13.030;2022-10-26T05:45:42;11.80;99.90
21316;DHT22;10817;55.820;13.030;2022-10-26T05:48:09;11.90;99.90
21316;DHT22;10817;55.820;13.030;2022-10-26T05:50:36;12.00;99.90
21316;DHT22;10817;55.820;13.030;2022-10-26T05:53:03;12.00;99.90
21316;DHT22;10817;55.820;13.030;2022-10-26T05:55:31;12.00;99.90
21316;DHT22;10817;55.820;13.030;2022-10-26T05:58:00;11.90;99.90
21316;DHT22;10817;55.820;13.030;2022-10-26T06:00:29;12.00;99.90
21316;DHT22;10817;55.820;13.030;2022-10-26T06:03:11;12.10;99.90
21316;DHT22;10817;55.820;13.030;2022-10-26T06:05:50;12.20;99.90
21316;DHT22;10817;55.820;13.030;2022-10-26T06:08:18;12.20;99.90
21316;DHT22;10817;55.820;13.030;2022-10-26T06:10:46;12.20;99.90
21316;DHT22;10817;55.820;13.030;2022-10-26T06:13:15;12.30;99.90
21316;DHT22;10817;55.820;13.030;2022-10-26T06:15:57;12.20;99.90
21316;DHT22;10817;55.820;13.030;2022-10-26T06:18:32;12.40;99.90
21316;DHT22;10817;55.820;13.030;2022-10-26T06:21:13;12.30;99.90
21316;DHT22;10817;55.820;13.030;2022-10-26T06:23:47;12.20;99.90
21316;DHT22;10817;55.820;13.030;2022-10-26T06:26:25;12.20;99.90
21316;DHT22;10817;55.820;13.030;2022-10-26T06:29:03;12.20;99.90
21316;DHT22;10817;55.820;13.030;2022-10-26T06:31:32;12.20;99.90
21316;DHT22;10817;55.820;13.030;2022-10-26T06:33:59;12.10;99.90
21316;DHT22;10817;55.820;13.030;2022-10-26T06:36:28;12.10;99.90
21316;DHT22;10817;55.820;13.030;2022-10-26T06:38:57;12.00;99.90
21316;DHT22;10817;55.820;13.030;2022-10-26T06:41:26;12.00;99.90
21316;DHT22;10817;55.820;13.030;2022-10-26T06:43:54;11.90;99.90
21316;DHT22;10817;55.820;13.030;2022-10-26T06:46:33;12.00;99.90
21316;DHT22;10817;55.820;13.030;2022-10-26T06:49:09;12.10;99.90
21316;DHT22;10817;55.820;13.030;2022-10-26T06:51:51;12.10;99.90
21316;DHT22;10817;55.820;13.030;2022-10-26T06:54:24;12.00;99.90
21316;DHT22;10817;55.820;13.030;2022-10-26T06:56:53;12.10;99.90
21316;DHT22;10817;55.820;13.030;2022-10-26T06:59:31;12.10;99.90
21316;DHT22;10817;55.820;13.030;2022-10-26T07:02:03;12.00;99.90
21316;DHT22;10817;55.820;13.030;2022-10-26T07:04:30;11.90;99.90
21316;DHT22;10817;55.820;13.030;2022-10-26T07:06:57;11.90;99.90
21316;DHT22;10817;55.820;13.030;2022-10-26T07:09:24;11.80;99.90
21316;DHT22;10817;55.820;13.030;2022-10-26T07:11:51;11.80;99.90
21316;DHT22;10817;55.820;13.030;2022-10-26T07:14:17;11.80;99.90
21316;DHT22;10817;55.820;13.030;2022-10-26T07:16:44;11.80;99.90
21316;DHT22;10817;55.820;13.030;2022-10-26T07:19:13;11.80;99.90
21316;DHT22;10817;55.820;13.030;2022-10-26T07:21:40;12.00;99.90
21316;DHT22;10817;55.820;13.030;2022-10-26T07:24:07;12.00;99.90
21316;DHT22;10817;55.820;13.030;2022-10-26T07:26:34;12.00;99.90
21316;DHT22;10817;55.820;13.030;2022-10-26T07:29:01;12.10;99.90
21316;DHT22;10817;55.820;13.030;2022-10-26T07:31:28;12.50;99.90
21316;DHT22;10817;55.820;13.030;2022-10-26T07:33:55;12.20;99.90
21316;DHT22;10817;55.820;13.030;2022-10-26T07:36:23;12.20;99.90
21316;DHT22;10817;55.820;13.030;2022-10-26T07:38:51;12.10;99.90
21316;DHT22;10817;55.820;13.030;2022-10-26T07:41:18;12.00;99.90
21316;DHT22;10817;55.820;13.030;2022-10-26T07:43:45;12.10;99.90
21316;DHT22;10817;55.820;13.030;2022-10-26T07:46:13;11.90;99.90
21316;DHT22;10817;55.820;13.030;2022-10-26T07:48:40;11.90;99.90
21316;DHT22;10817;55.820;13.030;2022-10-26T07:51:07;12.00;99.90
21316;DHT22;10817;55.820;13.030;2022-10-26T07:53:38;12.00;99.90
21316;DHT22;10817;55.820;13.030;2022-10-26T07:56:06;12.60;99.90
21316;DHT22;10817;55.820;13.030;2022-10-26T07:58:33;12.00;99.90
21316;DHT22;10817;55.820;13.030;2022-10-26T08:01:05;12.00;99.90
21316;DHT22;10817;55.820;13.030;2022-10-26T08:03:32;12.00;99.90
21316;DHT22;10817;55.820;13.030;2022-10-26T08:05:59;12.30;99.90
21316;DHT22;10817;55.820;13.030;2022-10-26T08:08:27;12.00;99.90
21316;DHT22;10817;55.820;13.030;2022-10-26T08:10:55;12.00;99.90
21316;DHT22;10817;55.820;13.030;2022-10-26T08:13:22;12.10;99.90
21316;DHT22;10817;55.820;13.030;2022-10-26T08:15:54;12.10;99.90
21316;DHT22;10817;55.820;13.030;2022-10-26T08:18:21;12.10;99.90
21316;DHT22;10817;55.820;13.030;2022-10-26T08:20:48;12.20;99.90
21316;DHT22;10817;55.820;13.030;2022-10-26T08:23:15;12.10;99.90
21316;DHT22;10817;55.820;13.030;2022-10-26T08:25:42;12.00;99.90
21316;DHT22;10817;55.820;13.030;2022-10-26T08:28:12;12.00;99.90
21316;DHT22;10817;55.820;13.030;2022-10-26T08:30:41;12.00;99.90
21316;DHT22;10817;55.820;13.030;2022-10-26T08:33:09;12.00;99.90
21316;DHT22;10817;55.820;13.030;2022-10-26T08:35:37;12.00;99.90
21316;DHT22;10817;55.820;13.030;2022-10-26T08:38:03;12.00;99.90
21316;DHT22;10817;55.820;13.030;2022-10-26T08:40:32;11.90;99.90
21316;DHT22;10817;55.820;13.030;2022-10-26T08:43:04;11.80;99.90
21316;DHT22;10817;55.820;13.030;2022-10-26T08:45:36;11.80;99.90
21316;DHT22;10817;55.820;13.030;2022-10-26T08:48:09;11.70;99.90
21316;DHT22;10817;55.820;13.030;2022-10-26T08:54:37;11.70;99.90
21316;DHT22;10817;55.820;13.030;2022-10-26T08:57:13;11.70;99.90
21316;DHT22;10817;55.820;13.030;2022-10-26T08:59:48;11.50;99.90
21316;DHT22;10817;55.820;13.030;2022-10-26T09:02:20;11.60;99.90
21316;DHT22;10817;55.820;13.030;2022-10-26T09:04:52;11.60;99.90
21316;DHT22;10817;55.820;13.030;2022-10-26T09:07:39;11.60;99.90
21316;DHT22;10817;55.820;13.030;2022-10-26T09:10:31;11.70;99.90
21316;DHT22;10817;55.820;13.030;2022-10-26T09:13:05;11.80;99.90
21316;DHT22;10817;55.820;13.030;2022-10-26T09:15:42;11.80;99.90
21316;DHT22;10817;55.820;13.030;2022-10-26T09:18:22;11.70;99.90
21316;DHT22;10817;55.820;13.030;2022-10-26T09:20:58;11.70;99.90
21316;DHT22;10817;55.820;13.030;2022-10-26T09:23:39;11.60;99.90
21316;DHT22;10817;55.820;13.030;2022-10-26T09:26:14;11.70;99.90
21316;DHT22;10817;55.820;13.030;2022-10-26T09:28:44;11.70;99.90
21316;DHT22;10817;55.820;13.030;2022-10-26T09:31:14;11.60;99.90
21316;DHT22;10817;55.820;13.030;2022-10-26T09:33:42;11.60;99.90
21316;DHT22;10817;55.820;13.030;2022-10-26T09:36:11;11.70;99.90
21316;DHT22;10817;55.820;13.030;2022-10-26T09:38:42;11.70;99.90
21316;DHT22;10817;55.820;13.030;2022-10-26T09:41:16;11.70;99.90
21316;DHT22;10817;55.820;13.030;2022-10-26T09:43:49;11.80;99.90
21316;DHT22;10817;55.820;13.030;2022-10-26T09:46:24;11.80;99.90
21316;DHT22;10817;55.820;13.030;2022-10-26T09:48:55;11.80;99.90
21316;DHT22;10817;55.820;13.030;2022-10-26T09:51:23;11.90;99.90
21316;DHT22;10817;55.820;13.030;2022-10-26T09:53:53;12.00;99.90
21316;DHT22;10817;55.820;13.030;2022-10-26T09:56:22;12.00;99.90
21316;DHT22;10817;55.820;13.030;2022-10-26T09:58:52;12.10;99.90
21316;DHT22;10817;55.820;13.030;2022-10-26T10:01:28;12.10;99.90
21316;DHT22;10817;55.820;13.030;2022-10-26T10:04:16;12.30;99.90
21316;DHT22;10817;55.820;13.030;2022-10-26T10:06:46;12.30;99.90
21316;DHT22;10817;55.820;13.030;2022-10-26T10:09:14;12.30;99.90
21316;DHT22;10817;55.820;13.030;2022-10-26T10:11:43;12.40;99.90
21316;DHT22;10817;55.820;13.030;2022-10-26T10:14:15;12.50;99.90
21316;DHT22;10817;55.820;13.030;2022-10-26T10:16:50;12.60;99.90
21316;DHT22;10817;55.820;13.030;2022-10-26T10:19:23;12.60;99.90
21316;DHT22;10817;55.820;13.030;2022-10-26T10:21:53;12.70;99.90
21316;DHT22;10817;55.820;13.030;2022-10-26T10:24:23;12.70;99.90
21316;DHT22;10817;55.820;13.030;2022-10-26T10:26:56;12.80;99.90
21316;DHT22;10817;55.820;13.030;2022-10-26T10:29:24;13.10;99.90
21316;DHT22;10817;55.820;13.030;2022-10-26T10:31:55;13.20;99.90
21316;DHT22;10817;55.820;13.030;2022-10-26T10:34:23;13.00;99.90
21316;DHT22;10817;55.820;13.030;2022-10-26T10:36:50;13.00;99.90
21316;DHT22;10817;55.820;13.030;2022-10-26T10:39:33;13.00;99.90
21316;DHT22;10817;55.820;13.030;2022-10-26T10:42:01;12.90;99.90
21316;DHT22;10817;55.820;13.030;2022-10-26T10:44:30;12.80;99.90
21316;DHT22;10817;55.820;13.030;2022-10-26T10:47:02;12.70;99.90
21316;DHT22;10817;55.820;13.030;2022-10-26T10:49:30;12.60;99.90
21316;DHT22;10817;55.820;13.030;2022-10-26T10:51:58;12.60;99.90
21316;DHT22;10817;55.820;13.030;2022-10-26T10:54:29;12.60;99.90
21316;DHT22;10817;55.820;13.030;2022-10-26T10:57:07;12.70;99.90
21316;DHT22;10817;55.820;13.030;2022-10-26T10:59:58;12.70;99.90
21316;DHT22;10817;55.820;13.030;2022-10-26T11:03:03;12.60;99.90
21316;DHT22;10817;55.820;13.030;2022-10-26T11:05:53;12.70;99.90
21316;DHT22;10817;55.820;13.030;2022-10-26T11:08:28;12.70;99.90
21316;DHT22;10817;55.820;13.030;2022-10-26T11:10:59;12.70;99.90
21316;DHT22;10817;55.820;13.030;2022-10-26T11:13:30;12.80;99.90
21316;DHT22;10817;55.820;13.030;2022-10-26T11:16:02;12.70;99.90
21316;DHT22;10817;55.820;13.030;2022-10-26T11:18:32;12.80;99.90
21316;DHT22;10817;55.820;13.030;2022-10-26T11:21:05;13.00;99.90
21316;DHT22;10817;55.820;13.030;2022-10-26T11:23:45;13.60;99.90
21316;DHT22;10817;55.820;13.030;2022-10-26T11:26:21;14.00;99.90
21316;DHT22;10817;55.820;13.030;2022-10-26T11:28:54;14.20;99.90
21316;DHT22;10817;55.820;13.030;2022-10-26T11:31:28;14.20;99.90
21316;DHT22;10817;55.820;13.030;2022-10-26T11:34:07;14.00;99.90
21316;DHT22;10817;55.820;13.030;2022-10-26T11:36:38;13.90;99.90
21316;DHT22;10817;55.820;13.030;2022-10-26T11:39:13;13.60;99.90
21316;DHT22;10817;55.820;13.030;2022-10-26T11:41:46;13.50;99.90
21316;DHT22;10817;55.820;13.030;2022-10-26T11:44:19;13.50;99.90
21316;DHT22;10817;55.820;13.030;2022-10-26T11:46:51;13.20;99.90
21316;DHT22;10817;55.820;13.030;2022-10-26T11:49:22;13.20;99.90
21316;DHT22;10817;55.820;13.030;2022-10-26T11:51:55;13.10;99.90
21316;DHT22;10817;55.820;13.030;2022-10-26T11:54:29;13.10;99.90
21316;DHT22;10817;55.820;13.030;2022-10-26T11:56:57;13.10;99.90
21316;DHT22;10817;55.820;13.030;2022-10-26T11:59:26;13.10;99.90
21316;DHT22;10817;55.820;13.030;2022-10-26T12:01:59;13.10;99.90
21316;DHT22;10817;55.820;13.030;2022-10-26T12:04:29;13.00;99.90
21316;DHT22;10817;55.820;13.030;2022-10-26T12:07:01;13.00;99.90
21316;DHT22;10817;55.820;13.030;2022-10-26T12:09:31;13.00;99.90
21316;DHT22;10817;55.820;13.030;2022-10-26T12:12:04;12.90;99.90
21316;DHT22;10817;55.820;13.030;2022-10-26T12:14:37;12.90;99.90
21316;DHT22;10817;55.820;13.030;2022-10-26T12:17:09;12.90;99.90
21316;DHT22;10817;55.820;13.030;2022-10-26T12:19:42;12.90;99.90
21316;DHT22;10817;55.820;13.030;2022-10-26T12:22:15;13.00;99.90
21316;DHT22;10817;55.820;13.030;2022-10-26T12:24:45;13.10;99.90
21316;DHT22;10817;55.820;13.030;2022-10-26T12:27:30;13.10;99.90
21316;DHT22;10817;55.820;13.030;2022-10-26T12:30:22;13.20;99.90
21316;DHT22;10817;55.820;13.030;2022-10-26T12:32:52;13.20;99.90
21316;DHT22;10817;55.820;13.030;2022-10-26T12:35:39;13.10;99.90
21316;DHT22;10817;55.820;13.030;2022-10-26T12:41:17;13.10;99.90
21316;DHT22;10817;55.820;13.030;2022-10-26T12:43:44;13.20;99.90
21316;DHT22;10817;55.820;13.030;2022-10-26T12:46:42;13.20;99.90
21316;DHT22;10817;55.820;13.030;2022-10-26T12:52:37;13.20;99.90
21316;DHT22;10817;55.820;13.030;2022-10-26T12:58:35;13.30;99.90
21316;DHT22;10817;55.820;13.030;2022-10-26T13:01:25;13.20;99.90
21316;DHT22;10817;55.820;13.030;2022-10-26T13:07:05;13.10;99.90
21316;DHT22;10817;55.820;13.030;2022-10-26T13:09:36;13.10;99.90
21316;DHT22;10817;55.820;13.030;2022-10-26T13:12:03;13.10;99.90
21316;DHT22;10817;55.820;13.030;2022-10-26T13:14:34;13.10;99.90
21316;DHT22;10817;55.820;13.030;2022-10-26T13:17:03;13.00;99.90
21316;DHT22;10817;55.820;13.030;2022-10-26T13:19:35;12.90;99.90
21316;DHT22;10817;55.820;13.030;2022-10-26T13:22:11;13.00;99.90
21316;DHT22;10817;55.820;13.030;2022-10-26T13:24:47;12.90;99.90
21316;DHT22;10817;55.820;13.030;2022-10-26T13:27:26;12.90;99.90
21316;DHT22;10817;55.820;13.030;2022-10-26T13:30:40;12.80;99.90
21316;DHT22;10817;55.820;13.030;2022-10-26T13:33:20;12.80;99.90
21316;DHT22;10817;55.820;13.030;2022-10-26T13:35:51;12.80;99.90
21316;DHT22;10817;55.820;13.030;2022-10-26T13:38:21;12.80;99.90
21316;DHT22;10817;55.820;13.030;2022-10-26T13:40:48;12.80;99.90
21316;DHT22;10817;55.820;13.030;2022-10-26T13:43:20;12.80;99.90
21316;DHT22;10817;55.820;13.030;2022-10-26T13:45:54;13.90;99.90
21316;DHT22;10817;55.820;13.030;2022-10-26T13:48:28;13.00;99.90
21316;DHT22;10817;55.820;13.030;2022-10-26T13:51:00;13.00;99.90
21316;DHT22;10817;55.820;13.030;2022-10-26T13:53:36;13.10;99.90
21316;DHT22;10817;55.820;13.030;2022-10-26T13:56:12;13.20;99.90
21316;DHT22;10817;55.820;13.030;2022-10-26T13:58:44;13.20;99.90
21316;DHT22;10817;55.820;13.030;2022-10-26T14:01:15;13.30;99.90
21316;DHT22;10817;55.820;13.030;2022-10-26T14:03:42;13.30;99.90
21316;DHT22;10817;55.820;13.030;2022-10-26T14:06:16;13.30;99.90
21316;DHT22;10817;55.820;13.030;2022-10-26T14:08:44;13.30;99.90
21316;DHT22;10817;55.820;13.030;2022-10-26T14:11:17;13.40;99.90
21316;DHT22;10817;55.820;13.030;2022-10-26T14:13:47;13.30;99.90
21316;DHT22;10817;55.820;13.030;2022-10-26T14:16:18;13.20;99.90
21316;DHT22;10817;55.820;13.030;2022-10-26T14:18:46;13.20;99.90
21316;DHT22;10817;55.820;13.030;2022-10-26T14:21:16;13.10;99.90
21316;DHT22;10817;55.820;13.030;2022-10-26T14:23:46;13.00;99.90
21316;DHT22;10817;55.820;13.030;2022-10-26T14:26:21;13.00;99.90
21316;DHT22;10817;55.820;13.030;2022-10-26T14:28:51;13.00;99.90
21316;DHT22;10817;55.820;13.030;2022-10-26T14:31:23;13.00;99.90
21316;DHT22;10817;55.820;13.030;2022-10-26T14:33:51;13.10;99.90
21316;DHT22;10817;55.820;13.030;2022-10-26T14:36:19;13.00;99.90
21316;DHT22;10817;55.820;13.030;2022-10-26T14:38:51;13.00;99.90
21316;DHT22;10817;55.820;13.030;2022-10-26T14:41:20;13.00;99.90
21316;DHT22;10817;55.820;13.030;2022-10-26T14:43:47;13.10;99.90
21316;DHT22;10817;55.820;13.030;2022-10-26T14:46:16;13.10;99.90
21316;DHT22;10817;55.820;13.030;2022-10-26T14:48:52;13.10;99.90
21316;DHT22;10817;55.820;13.030;2022-10-26T14:51:24;13.10;99.90
21316;DHT22;10817;55.820;13.030;2022-10-26T14:53:52;13.00;99.90
21316;DHT22;10817;55.820;13.030;2022-10-26T14:56:23;13.00;99.90
21316;DHT22;10817;55.820;13.030;2022-10-26T14:58:52;12.90;99.90
21316;DHT22;10817;55.820;13.030;2022-10-26T15:01:28;12.80;99.90
21316;DHT22;10817;55.820;13.030;2022-10-26T15:03:59;12.60;99.90
21316;DHT22;10817;55.820;13.030;2022-10-26T15:06:42;12.50;99.90
21316;DHT22;10817;55.820;13.030;2022-10-26T15:09:36;12.40;99.90
21316;DHT22;10817;55.820;13.030;2022-10-26T15:12:04;12.20;99.90
21316;DHT22;10817;55.820;13.030;2022-10-26T15:14:32;12.20;99.90
21316;DHT22;10817;55.820;13.030;2022-10-26T15:17:00;12.10;99.90
21316;DHT22;10817;55.820;13.030;2022-10-26T15:19:28;12.00;99.90
21316;DHT22;10817;55.820;13.030;2022-10-26T15:21:55;11.90;99.90
21316;DHT22;10817;55.820;13.030;2022-10-26T15:24:29;11.80;99.90
21316;DHT22;10817;55.820;13.030;2022-10-26T15:26:57;11.70;99.90
21316;DHT22;10817;55.820;13.030;2022-10-26T15:29:34;11.60;99.90
21316;DHT22;10817;55.820;13.030;2022-10-26T15:32:02;11.60;99.90
21316;DHT22;10817;55.820;13.030;2022-10-26T15:34:30;11.50;99.90
21316;DHT22;10817;55.820;13.030;2022-10-26T15:36:57;11.50;99.90
21316;DHT22;10817;55.820;13.030;2022-10-26T15:39:25;11.40;99.90
21316;DHT22;10817;55.820;13.030;2022-10-26T15:41:52;11.30;99.90
21316;DHT22;10817;55.820;13.030;2022-10-26T15:44:21;11.30;99.90
21316;DHT22;10817;55.820;13.030;2022-10-26T15:46:48;11.70;99.90
21316;DHT22;10817;55.820;13.030;2022-10-26T15:49:18;11.20;99.90
21316;DHT22;10817;55.820;13.030;2022-10-26T15:51:47;11.40;99.90
21316;DHT22;10817;55.820;13.030;2022-10-26T15:54:14;11.10;99.90
21316;DHT22;10817;55.820;13.030;2022-10-26T15:56:42;11.10;99.90
21316;DHT22;10817;55.820;13.030;2022-10-26T15:59:13;11.00;99.90